createdAt,value
2018-12-02T00:00:54.925Z,99604.55
2018-12-02T00:01:58.397Z,99600.77
2018-12-02T00:03:03.845Z,99596.19
2018-12-02T00:04:07.639Z,99598.72
2018-12-02T00:05:11.123Z,99598.48
2018-12-02T00:06:14.576Z,99600.20
2018-12-02T00:07:18.094Z,99593.91
2018-12-02T00:08:21.563Z,99595.63
2018-12-02T00:09:25.005Z,99591.03
2018-12-02T00:10:28.498Z,99590.48
2018-12-02T00:11:31.906Z,99585.30
2018-12-02T00:12:35.263Z,99583.13
2018-12-02T00:13:38.656Z,99582.67
2018-12-02T00:14:42.107Z,99581.87
2018-12-02T00:15:45.531Z,99584.39
2018-12-02T00:16:49.018Z,99583.02
2018-12-02T00:17:55.516Z,99586.11
2018-12-02T00:18:58.933Z,99585.09
2018-12-02T00:20:02.351Z,99582.91
2018-12-02T00:21:06.157Z,99572.27
2018-12-02T00:22:09.615Z,99571.81
2018-12-02T00:23:13.045Z,99570.67
2018-12-02T00:24:16.511Z,99567.47
2018-12-02T00:25:20.000Z,99561.49
2018-12-02T00:26:23.418Z,99564.23
2018-12-02T00:27:26.859Z,99567.56
2018-12-02T00:28:30.325Z,99568.70
2018-12-02T00:29:33.756Z,99567.91
2018-12-02T00:30:37.224Z,99566.30
2018-12-02T00:31:40.662Z,99563.91
2018-12-02T00:32:44.133Z,99568.02
2018-12-02T00:33:47.555Z,99557.38
2018-12-02T00:34:51.081Z,99565.39
2018-12-02T00:35:54.496Z,99562.42
2018-12-02T00:36:57.915Z,99562.99
2018-12-02T00:38:02.316Z,99562.19
2018-12-02T00:39:06.603Z,99557.05
2018-12-02T00:40:11.313Z,99557.05
2018-12-02T00:41:14.743Z,99552.09
2018-12-02T00:42:18.222Z,99557.36
2018-12-02T00:43:21.624Z,99554.61
2018-12-02T00:44:25.049Z,99545.89
2018-12-02T00:45:30.859Z,99551.37
2018-12-02T00:46:34.315Z,99550.58
2018-12-02T00:47:37.726Z,99558.25
2018-12-02T00:48:41.153Z,99555.27
2018-12-02T00:49:44.594Z,99551.37
2018-12-02T00:50:47.973Z,99548.81
2018-12-02T00:51:51.387Z,99550.52
2018-12-02T00:52:56.025Z,99550.28
2018-12-02T00:53:59.471Z,99546.97
2018-12-02T00:55:02.920Z,99548.33
2018-12-02T00:56:05.148Z,99545.83
2018-12-02T00:57:08.583Z,99544.20
2018-12-02T00:58:11.970Z,99538.47
2018-12-02T00:59:15.375Z,99527.16
2018-12-02T01:00:18.842Z,99524.73
2018-12-02T01:01:22.226Z,99528.96
2018-12-02T01:02:25.650Z,99525.98
2018-12-02T01:03:29.056Z,99524.48
2018-12-02T01:04:32.442Z,99517.27
2018-12-02T01:05:35.887Z,99520.23
2018-12-02T01:06:39.286Z,99517.27
2018-12-02T01:07:42.734Z,99518.06
2018-12-02T01:08:46.125Z,99517.27
2018-12-02T01:09:49.551Z,99517.48
2018-12-02T01:10:52.999Z,99514.87
2018-12-02T01:11:56.428Z,99511.55
2018-12-02T01:13:00.141Z,99510.52
2018-12-02T01:14:03.562Z,99508.92
2018-12-02T01:15:09.965Z,99509.50
2018-12-02T01:16:13.349Z,99500.80
2018-12-02T01:17:16.821Z,99503.90
2018-12-02T01:18:20.272Z,99509.17
2018-12-02T01:19:23.658Z,99504.02
2018-12-02T01:20:27.105Z,99494.98
2018-12-02T01:21:30.629Z,99493.13
2018-12-02T01:22:34.024Z,99493.70
2018-12-02T01:23:37.402Z,99485.80
2018-12-02T01:24:40.791Z,99487.53
2018-12-02T01:25:44.199Z,99484.55
2018-12-02T01:26:47.583Z,99480.78
2018-12-02T01:27:50.991Z,99481.94
2018-12-02T01:28:54.414Z,99483.66
2018-12-02T01:29:57.813Z,99483.66
2018-12-02T01:31:01.198Z,99481.03
2018-12-02T01:32:04.651Z,99476.11
2018-12-02T01:33:08.149Z,99481.95
2018-12-02T01:34:11.544Z,99480.90
2018-12-02T01:35:16.009Z,99479.53
2018-12-02T01:36:19.430Z,99487.77
2018-12-02T01:37:22.841Z,99487.31
2018-12-02T01:38:26.230Z,99483.77
2018-12-02T01:39:29.642Z,99484.34
2018-12-02T01:40:33.031Z,99489.39
2018-12-02T01:41:36.458Z,99485.84
2018-12-02T01:42:39.918Z,99484.81
2018-12-02T01:43:43.334Z,99490.31
2018-12-02T01:44:46.818Z,99478.08
2018-12-02T01:45:50.413Z,99485.52
2018-12-02T01:46:53.854Z,99488.84
2018-12-02T01:47:57.327Z,99484.48
2018-12-02T01:49:00.719Z,99478.20
2018-12-02T01:50:04.984Z,99487.81
2018-12-02T01:51:08.616Z,99476.02
2018-12-02T01:52:12.000Z,99477.73
2018-12-02T01:53:15.422Z,99475.53
2018-12-02T01:54:18.806Z,99472.67
2018-12-02T01:55:22.301Z,99475.16
2018-12-02T01:56:25.652Z,99468.08
2018-12-02T01:57:29.084Z,99466.67
2018-12-02T01:58:32.484Z,99463.44
2018-12-02T01:59:35.931Z,99461.84
2018-12-02T02:00:39.358Z,99453.34
2018-12-02T02:01:42.749Z,99445.98
2018-12-02T02:02:46.171Z,99437.97
2018-12-02T02:03:49.619Z,99435.88
2018-12-02T02:04:53.044Z,99443.23
2018-12-02T02:05:56.421Z,99444.48
2018-12-02T02:06:59.824Z,99439.91
2018-12-02T02:08:03.251Z,99436.58
2018-12-02T02:09:09.160Z,99431.44
2018-12-02T02:10:17.076Z,99436.36
2018-12-02T02:11:20.499Z,99432.91
2018-12-02T02:12:23.923Z,99437.84
2018-12-02T02:13:27.335Z,99432.91
2018-12-02T02:14:30.740Z,99437.03
2018-12-02T02:15:34.185Z,99428.12
2018-12-02T02:16:37.607Z,99421.02
2018-12-02T02:17:41.114Z,99420.00
2018-12-02T02:18:44.536Z,99426.66
2018-12-02T02:19:47.964Z,99425.98
2018-12-02T02:20:51.384Z,99417.52
2018-12-02T02:21:54.870Z,99425.28
2018-12-02T02:22:58.279Z,99423.91
2018-12-02T02:24:01.653Z,99423.02
2018-12-02T02:25:06.119Z,99423.59
2018-12-02T02:26:09.526Z,99421.77
2018-12-02T02:27:12.919Z,99415.03
2018-12-02T02:28:16.375Z,99413.43
2018-12-02T02:29:19.898Z,99410.46
2018-12-02T02:30:24.770Z,99411.39
2018-12-02T02:31:28.160Z,99402.34
2018-12-02T02:32:31.610Z,99395.80
2018-12-02T02:33:35.020Z,99398.89
2018-12-02T02:34:38.439Z,99400.05
2018-12-02T02:35:41.838Z,99402.57
2018-12-02T02:36:45.417Z,99399.59
2018-12-02T02:37:49.949Z,99390.91
2018-12-02T02:38:53.532Z,99395.38
2018-12-02T02:39:56.900Z,99385.54
2018-12-02T02:41:00.327Z,99391.39
2018-12-02T02:42:03.758Z,99385.67
2018-12-02T02:43:07.182Z,99383.27
2018-12-02T02:44:10.583Z,99378.93
2018-12-02T02:45:14.689Z,99377.88
2018-12-02T02:46:18.201Z,99379.03
2018-12-02T02:47:21.604Z,99374.11
2018-12-02T02:48:25.030Z,99373.66
2018-12-02T02:49:28.418Z,99377.55
2018-12-02T02:50:31.852Z,99372.64
2018-12-02T02:51:35.288Z,99369.66
2018-12-02T02:52:39.473Z,99367.50
2018-12-02T02:53:42.941Z,99363.38
2018-12-02T02:54:46.544Z,99360.85
2018-12-02T02:55:50.630Z,99370.34
2018-12-02T02:56:54.035Z,99360.50
2018-12-02T02:57:57.794Z,99358.16
2018-12-02T02:59:01.172Z,99353.19
2018-12-02T03:00:21.116Z,99356.47
2018-12-02T03:01:24.522Z,99352.70
2018-12-02T03:02:27.917Z,99353.36
2018-12-02T03:03:31.360Z,99353.09
2018-12-02T03:04:34.787Z,99355.27
2018-12-02T03:05:38.200Z,99353.54
2018-12-02T03:06:41.600Z,99354.78
2018-12-02T03:07:45.076Z,99346.75
2018-12-02T03:08:48.486Z,99347.00
2018-12-02T03:09:51.934Z,99349.27
2018-12-02T03:10:55.359Z,99352.02
2018-12-02T03:11:59.037Z,99352.15
2018-12-02T03:13:02.454Z,99342.52
2018-12-02T03:14:05.907Z,99347.67
2018-12-02T03:15:11.771Z,99348.82
2018-12-02T03:16:15.164Z,99344.25
2018-12-02T03:17:18.573Z,99347.00
2018-12-02T03:18:21.967Z,99343.20
2018-12-02T03:19:25.361Z,99341.39
2018-12-02T03:20:28.803Z,99346.66
2018-12-02T03:21:32.201Z,99344.27
2018-12-02T03:22:35.766Z,99341.52
2018-12-02T03:23:39.207Z,99335.00
2018-12-02T03:24:42.637Z,99336.16
2018-12-02T03:25:46.147Z,99338.47
2018-12-02T03:26:49.571Z,99340.41
2018-12-02T03:27:53.102Z,99334.47
2018-12-02T03:28:56.476Z,99337.00
2018-12-02T03:29:59.865Z,99327.48
2018-12-02T03:31:03.306Z,99329.21
2018-12-02T03:32:06.782Z,99330.14
2018-12-02T03:33:10.272Z,99325.58
2018-12-02T03:34:13.655Z,99329.25
2018-12-02T03:35:19.150Z,99331.78
2018-12-02T03:36:22.555Z,99329.73
2018-12-02T03:37:25.968Z,99319.91
2018-12-02T03:38:30.050Z,99319.68
2018-12-02T03:39:33.449Z,99317.83
2018-12-02T03:40:36.833Z,99320.36
2018-12-02T03:41:40.286Z,99318.77
2018-12-02T03:42:43.761Z,99315.57
2018-12-02T03:43:47.163Z,99313.97
2018-12-02T03:44:50.580Z,99307.45
2018-12-02T03:45:54.001Z,99310.56
2018-12-02T03:46:57.416Z,99306.22
2018-12-02T03:48:00.861Z,99301.88
2018-12-02T03:49:04.342Z,99305.20
2018-12-02T03:50:24.052Z,99302.55
2018-12-02T03:51:27.498Z,99302.33
2018-12-02T03:52:30.898Z,99297.19
2018-12-02T03:53:34.329Z,99299.13
2018-12-02T03:54:37.753Z,99301.08
2018-12-02T03:55:41.174Z,99294.56
2018-12-02T03:56:47.592Z,99288.27
2018-12-02T03:57:51.015Z,99285.88
2018-12-02T03:58:54.411Z,99283.58
2018-12-02T03:59:57.795Z,99293.51
2018-12-02T04:01:01.197Z,99282.86
2018-12-02T04:02:04.640Z,99287.95
2018-12-02T04:03:08.063Z,99284.39
2018-12-02T04:04:11.460Z,99282.27
2018-12-02T04:05:16.551Z,99275.73
2018-12-02T04:06:20.079Z,99279.94
2018-12-02T04:07:23.495Z,99281.05
2018-12-02T04:08:26.938Z,99277.00
2018-12-02T04:09:30.381Z,99274.59
2018-12-02T04:10:33.745Z,99275.61
2018-12-02T04:11:38.374Z,99268.38
2018-12-02T04:12:41.883Z,99272.94
2018-12-02T04:13:45.313Z,99271.56
2018-12-02T04:14:48.800Z,99268.45
2018-12-02T04:15:52.200Z,99265.48
2018-12-02T04:16:55.634Z,99270.41
2018-12-02T04:17:59.025Z,99265.27
2018-12-02T04:19:02.445Z,99262.88
2018-12-02T04:20:07.826Z,99259.91
2018-12-02T04:21:11.227Z,99258.53
2018-12-02T04:22:14.607Z,99261.06
2018-12-02T04:23:18.071Z,99248.03
2018-12-02T04:24:21.600Z,99251.69
2018-12-02T04:25:26.099Z,99255.36
2018-12-02T04:26:29.533Z,99254.92
2018-12-02T04:27:32.929Z,99247.61
2018-12-02T04:28:36.373Z,99253.11
2018-12-02T04:29:39.836Z,99253.61
2018-12-02T04:30:43.224Z,99246.95
2018-12-02T04:31:46.599Z,99243.55
2018-12-02T04:32:51.900Z,99241.95
2018-12-02T04:33:55.328Z,99246.63
2018-12-02T04:34:58.743Z,99240.46
2018-12-02T04:36:02.114Z,99241.04
2018-12-02T04:37:05.538Z,99242.55
2018-12-02T04:38:08.967Z,99242.55
2018-12-02T04:39:12.377Z,99234.44
2018-12-02T04:40:15.857Z,99236.97
2018-12-02T04:41:19.301Z,99233.20
2018-12-02T04:42:22.694Z,99237.69
2018-12-02T04:43:26.092Z,99231.17
2018-12-02T04:44:29.508Z,99231.49
2018-12-02T04:45:32.923Z,99227.16
2018-12-02T04:46:36.343Z,99228.30
2018-12-02T04:47:39.769Z,99226.13
2018-12-02T04:48:43.214Z,99217.23
2018-12-02T04:49:46.592Z,99221.92
2018-12-02T04:50:50.042Z,99217.80
2018-12-02T04:51:53.450Z,99215.19
2018-12-02T04:52:56.845Z,99212.45
2018-12-02T04:54:00.253Z,99214.97
2018-12-02T04:55:03.685Z,99208.45
2018-12-02T04:56:07.119Z,99209.61
2018-12-02T04:57:10.541Z,99207.22
2018-12-02T04:58:13.942Z,99211.34
2018-12-02T04:59:17.368Z,99199.09
2018-12-02T05:00:21.329Z,99203.20
2018-12-02T05:01:24.760Z,99200.23
2018-12-02T05:02:28.152Z,99197.36
2018-12-02T05:03:31.611Z,99196.31
2018-12-02T05:04:34.988Z,99188.24
2018-12-02T05:05:38.398Z,99188.66
2018-12-02T05:06:41.833Z,99183.46
2018-12-02T05:07:45.354Z,99185.83
2018-12-02T05:08:48.770Z,99181.78
2018-12-02T05:09:52.159Z,99179.69
2018-12-02T05:10:55.678Z,99182.73
2018-12-02T05:11:59.093Z,99179.73
2018-12-02T05:13:02.486Z,99177.28
2018-12-02T05:14:05.953Z,99180.11
2018-12-02T05:15:13.773Z,99174.83
2018-12-02T05:16:17.239Z,99175.98
2018-12-02T05:17:20.683Z,99166.58
2018-12-02T05:18:24.161Z,99177.22
2018-12-02T05:19:27.554Z,99165.42
2018-12-02T05:20:30.939Z,99176.56
2018-12-02T05:21:34.481Z,99175.19
2018-12-02T05:22:37.923Z,99178.30
2018-12-02T05:23:41.299Z,99183.00
2018-12-02T05:24:44.730Z,99175.11
2018-12-02T05:25:48.393Z,99169.39
2018-12-02T05:26:51.874Z,99169.17
2018-12-02T05:27:55.419Z,99161.64
2018-12-02T05:28:58.801Z,99163.02
2018-12-02T05:30:02.273Z,99163.37
2018-12-02T05:31:06.151Z,99162.11
2018-12-02T05:32:09.585Z,99164.07
2018-12-02T05:33:12.978Z,99162.84
2018-12-02T05:34:16.373Z,99155.96
2018-12-02T05:35:19.789Z,99155.31
2018-12-02T05:36:23.206Z,99156.68
2018-12-02T05:37:26.624Z,99150.17
2018-12-02T05:38:30.114Z,99152.48
2018-12-02T05:39:33.541Z,99155.59
2018-12-02T05:40:36.952Z,99153.75
2018-12-02T05:42:49.424Z,99146.08
2018-12-02T05:43:52.947Z,99147.16
2018-12-02T05:44:56.433Z,99143.03
2018-12-02T05:45:59.847Z,99138.03
2018-12-02T05:47:03.255Z,99137.23
2018-12-02T05:48:06.711Z,99140.92
2018-12-02T05:49:10.084Z,99133.84
2018-12-02T05:50:17.571Z,99138.31
2018-12-02T05:51:21.015Z,99124.11
2018-12-02T05:52:24.406Z,99125.84
2018-12-02T05:53:27.860Z,99122.08
2018-12-02T05:54:31.253Z,99114.77
2018-12-02T05:55:36.910Z,99113.40
2018-12-02T05:56:40.291Z,99111.01
2018-12-02T05:57:43.957Z,99107.69
2018-12-02T05:58:47.391Z,99110.00
2018-12-02T05:59:50.784Z,99108.63
2018-12-02T06:00:54.210Z,99103.48
2018-12-02T06:01:57.633Z,99110.93
2018-12-02T06:03:01.059Z,99105.22
2018-12-02T06:04:04.554Z,99109.12
2018-12-02T06:05:09.303Z,99111.29
2018-12-02T06:06:12.748Z,99111.36
2018-12-02T06:07:16.225Z,99105.38
2018-12-02T06:08:19.644Z,99100.97
2018-12-02T06:09:23.109Z,99103.11
2018-12-02T06:10:26.501Z,99089.84
2018-12-02T06:11:29.858Z,99090.49
2018-12-02T06:12:33.276Z,99093.53
2018-12-02T06:13:36.688Z,99095.78
2018-12-02T06:14:40.118Z,99096.09
2018-12-02T06:15:43.512Z,99095.81
2018-12-02T06:16:46.920Z,99093.27
2018-12-02T06:17:50.607Z,99101.74
2018-12-02T06:18:53.991Z,99101.95
2018-12-02T06:19:57.427Z,99104.70
2018-12-02T06:21:00.877Z,99104.56
2018-12-02T06:22:04.321Z,99110.89
2018-12-02T06:23:07.788Z,99102.64
2018-12-02T06:24:11.222Z,99104.13
2018-12-02T06:25:14.669Z,99103.12
2018-12-02T06:26:18.112Z,99101.74
2018-12-02T06:27:21.560Z,99096.02
2018-12-02T06:28:25.087Z,99104.05
2018-12-02T06:29:28.489Z,99102.47
2018-12-02T06:30:31.906Z,99098.92
2018-12-02T06:31:35.293Z,99100.44
2018-12-02T06:32:38.761Z,99097.25
2018-12-02T06:33:42.176Z,99095.45
2018-12-02T06:34:45.566Z,99089.48
2018-12-02T06:35:49.014Z,99093.61
2018-12-02T06:36:52.377Z,99092.38
2018-12-02T06:37:56.652Z,99094.69
2018-12-02T06:39:00.071Z,99089.55
2018-12-02T06:40:03.836Z,99087.96
2018-12-02T06:41:07.252Z,99094.40
2018-12-02T06:42:10.657Z,99091.22
2018-12-02T06:43:14.063Z,99091.80
2018-12-02T06:44:17.459Z,99102.32
2018-12-02T06:45:21.475Z,99101.30
2018-12-02T06:46:24.889Z,99106.38
2018-12-02T06:47:28.268Z,99100.66
2018-12-02T06:48:31.691Z,99101.81
2018-12-02T06:49:35.090Z,99098.62
2018-12-02T06:50:38.529Z,99096.81
2018-12-02T06:51:42.021Z,99098.55
2018-12-02T06:52:45.420Z,99103.25
2018-12-02T06:53:48.802Z,99094.35
2018-12-02T06:55:01.402Z,99092.73
2018-12-02T06:56:13.977Z,99096.63
2018-12-02T06:57:22.230Z,99095.04
2018-12-02T07:00:49.542Z,99095.98
2018-12-02T07:01:59.279Z,99093.73
2018-12-02T07:03:21.703Z,99093.29
2018-12-02T07:04:32.197Z,99090.11
2018-12-02T07:05:39.102Z,99093.43
2018-12-02T07:06:42.520Z,99086.45
2018-12-02T07:07:45.971Z,99089.20
2018-12-02T07:08:49.386Z,99088.41
2018-12-02T07:09:52.768Z,99089.09
2018-12-02T07:10:56.225Z,99084.03
2018-12-02T07:11:59.637Z,99087.08
2018-12-02T07:13:03.027Z,99075.34
2018-12-02T07:14:06.432Z,99077.44
2018-12-02T07:15:09.875Z,99077.95
2018-12-02T07:16:13.265Z,99075.23
2018-12-02T07:17:16.659Z,99080.80
2018-12-02T07:18:24.377Z,99079.02
2018-12-02T07:19:41.651Z,99082.78
2018-12-02T07:20:51.067Z,99081.33
2018-12-02T07:22:00.615Z,99080.17
2018-12-02T07:23:09.435Z,99072.39
2018-12-02T07:24:16.725Z,99066.06
2018-12-02T07:25:23.017Z,99077.06
2018-12-02T07:26:30.076Z,99075.14
2018-12-02T07:27:33.491Z,99075.94
2018-12-02T07:28:36.889Z,99076.27
2018-12-02T07:29:40.370Z,99071.93
2018-12-02T07:30:43.767Z,99071.71
2018-12-02T07:31:47.176Z,99067.00
2018-12-02T07:32:50.567Z,99070.34
2018-12-02T07:33:53.987Z,99066.58
2018-12-02T07:34:57.379Z,99072.00
2018-12-02T07:36:00.763Z,99071.78
2018-12-02T07:37:13.612Z,99072.95
2018-12-02T07:38:28.841Z,99068.39
2018-12-02T07:40:39.168Z,99068.53
2018-12-02T07:41:42.570Z,99062.94
2018-12-02T07:42:45.977Z,99062.28
2018-12-02T07:43:49.411Z,99058.16
2018-12-02T07:44:52.899Z,99053.60
2018-12-02T07:45:56.339Z,99057.30
2018-12-02T07:46:59.752Z,99055.48
2018-12-02T07:48:03.178Z,99058.23
2018-12-02T07:49:06.599Z,99056.17
2018-12-02T07:50:10.302Z,99061.45
2018-12-02T07:51:13.694Z,99065.36
2018-12-02T07:52:17.097Z,99055.30
2018-12-02T07:53:20.538Z,99056.25
2018-12-02T07:54:23.957Z,99054.44
2018-12-02T07:55:27.332Z,99059.72
2018-12-02T07:56:30.723Z,99059.50
2018-12-02T07:57:34.119Z,99062.61
2018-12-02T07:58:37.529Z,99056.31
2018-12-02T07:59:40.897Z,99061.02
2018-12-02T08:00:44.990Z,99061.13
2018-12-02T08:01:48.467Z,99056.79
2018-12-02T08:02:51.918Z,99063.44
2018-12-02T08:03:55.350Z,99063.22
2018-12-02T08:04:58.801Z,99053.39
2018-12-02T08:06:02.201Z,99056.14
2018-12-02T08:07:06.036Z,99050.78
2018-12-02T08:08:09.792Z,99052.73
2018-12-02T08:09:13.219Z,99054.69
2018-12-02T08:10:17.806Z,99061.91
2018-12-02T08:11:21.241Z,99061.70
2018-12-02T08:12:24.749Z,99058.16
2018-12-02T08:13:28.187Z,99066.17
2018-12-02T08:14:31.644Z,99057.58
2018-12-02T08:15:35.032Z,99052.73
2018-12-02T08:16:38.459Z,99054.98
2018-12-02T08:17:41.948Z,99054.58
2018-12-02T08:18:45.370Z,99058.49
2018-12-02T08:19:48.848Z,99056.06
2018-12-02T08:20:52.340Z,99052.80
2018-12-02T08:21:55.791Z,99052.52
2018-12-02T08:22:59.291Z,99059.24
2018-12-02T08:24:02.838Z,99062.16
2018-12-02T08:25:09.406Z,99060.50
2018-12-02T08:26:12.836Z,99060.56
2018-12-02T08:27:16.299Z,99060.56
2018-12-02T08:28:19.807Z,99065.73
2018-12-02T08:29:23.216Z,99065.52
2018-12-02T08:30:26.884Z,99065.16
2018-12-02T08:31:30.249Z,99068.70
2018-12-02T08:32:33.687Z,99062.04
2018-12-02T08:33:37.134Z,99061.45
2018-12-02T08:34:40.536Z,99060.66
2018-12-02T08:35:43.974Z,99059.08
2018-12-02T08:36:47.444Z,99065.95
2018-12-02T08:37:52.726Z,99066.06
2018-12-02T08:38:56.177Z,99071.02
2018-12-02T08:39:59.608Z,99065.05
2018-12-02T08:41:03.071Z,99060.71
2018-12-02T08:42:06.540Z,99064.62
2018-12-02T08:43:09.986Z,99067.52
2018-12-02T08:44:13.462Z,99068.67
2018-12-02T08:45:17.938Z,99065.28
2018-12-02T08:46:21.368Z,99065.42
2018-12-02T08:47:24.837Z,99065.20
2018-12-02T08:48:28.271Z,99068.28
2018-12-02T08:49:31.723Z,99064.31
2018-12-02T08:50:35.160Z,99064.67
2018-12-02T08:51:38.575Z,99070.31
2018-12-02T08:52:42.041Z,99067.34
2018-12-02T08:53:45.552Z,99075.95
2018-12-02T08:54:49.021Z,99072.19
2018-12-02T08:55:52.454Z,99073.13
2018-12-02T08:56:55.905Z,99069.34
2018-12-02T08:57:59.395Z,99072.09
2018-12-02T08:59:02.949Z,99072.66
2018-12-02T09:00:09.935Z,99077.15
2018-12-02T09:01:13.419Z,99072.59
2018-12-02T09:02:16.787Z,99069.63
2018-12-02T09:03:20.267Z,99063.70
2018-12-02T09:04:23.701Z,99065.65
2018-12-02T09:05:27.250Z,99071.14
2018-12-02T09:06:30.636Z,99066.59
2018-12-02T09:07:34.044Z,99069.70
2018-12-02T09:08:37.473Z,99075.55
2018-12-02T09:09:40.909Z,99067.09
2018-12-02T09:10:46.273Z,99073.38
2018-12-02T09:11:48.147Z,99071.79
2018-12-02T09:12:53.091Z,99069.38
2018-12-02T09:13:56.520Z,99074.07
2018-12-02T09:14:59.972Z,99076.60
2018-12-02T09:16:03.440Z,99078.34
2018-12-02T09:17:07.344Z,99074.22
2018-12-02T09:18:11.338Z,99076.74
2018-12-02T09:19:14.885Z,99074.00
2018-12-02T09:20:21.352Z,99074.87
2018-12-02T09:21:24.855Z,99066.52
2018-12-02T09:22:28.355Z,99067.67
2018-12-02T09:23:31.803Z,99070.96
2018-12-02T09:24:35.298Z,99069.88
2018-12-02T09:25:38.777Z,99068.44
2018-12-02T09:26:42.384Z,99069.55
2018-12-02T09:27:45.967Z,99072.00
2018-12-02T09:28:49.799Z,99068.74
2018-12-02T09:29:53.554Z,99072.51
2018-12-02T09:30:57.046Z,99067.91
2018-12-02T09:32:00.454Z,99069.23
2018-12-02T09:33:03.917Z,99064.73
2018-12-02T09:34:07.312Z,99064.23
2018-12-02T09:35:11.398Z,99063.80
2018-12-02T09:36:14.820Z,99065.01
2018-12-02T09:37:18.237Z,99065.73
2018-12-02T09:38:22.008Z,99063.68
2018-12-02T09:39:25.538Z,99068.89
2018-12-02T09:40:28.966Z,99064.84
2018-12-02T09:41:32.368Z,99066.48
2018-12-02T09:42:35.926Z,99063.30
2018-12-02T09:43:39.456Z,99065.97
2018-12-02T09:44:42.998Z,99065.10
2018-12-02T09:45:46.612Z,99063.30
2018-12-02T09:46:50.093Z,99065.36
2018-12-02T09:47:54.319Z,99060.22
2018-12-02T09:48:57.759Z,99067.17
2018-12-02T09:50:01.738Z,99070.23
2018-12-02T09:51:05.555Z,99065.03
2018-12-02T09:52:09.009Z,99063.52
2018-12-02T09:53:12.456Z,99072.08
2018-12-02T09:54:15.830Z,99068.39
2018-12-02T09:55:44.264Z,99076.13
2018-12-02T09:56:47.747Z,99068.67
2018-12-02T09:57:52.014Z,99075.91
2018-12-02T09:58:55.419Z,99077.07
2018-12-02T09:59:58.885Z,99074.47
2018-12-02T10:01:02.423Z,99075.73
2018-12-02T10:02:06.436Z,99072.20
2018-12-02T10:03:09.880Z,99074.58
2018-12-02T10:04:13.364Z,99079.81
2018-12-02T10:05:16.807Z,99080.54
2018-12-02T10:06:20.250Z,99076.95
2018-12-02T10:07:23.663Z,99086.53
2018-12-02T10:08:27.094Z,99082.25
2018-12-02T10:09:30.527Z,99081.41
2018-12-02T10:10:34.081Z,99082.05
2018-12-02T10:11:37.543Z,99074.02
2018-12-02T10:12:41.274Z,99075.83
2018-12-02T10:13:44.703Z,99069.16
2018-12-02T10:14:48.201Z,99077.20
2018-12-02T10:15:51.633Z,99079.52
2018-12-02T10:16:55.128Z,99079.81
2018-12-02T10:17:58.565Z,99082.11
2018-12-02T10:19:02.089Z,99085.80
2018-12-02T10:20:08.161Z,99083.99
2018-12-02T10:21:12.447Z,99083.12
2018-12-02T10:22:15.839Z,99081.07
2018-12-02T10:23:19.343Z,99082.13
2018-12-02T10:24:22.799Z,99075.62
2018-12-02T10:25:26.294Z,99083.58
2018-12-02T10:26:29.774Z,99077.07
2018-12-02T10:27:33.187Z,99081.98
2018-12-02T10:28:36.549Z,99080.03
2018-12-02T10:29:39.978Z,99076.13
2018-12-02T10:30:43.410Z,99079.45
2018-12-02T10:31:46.981Z,99074.75
2018-12-02T10:32:51.204Z,99075.77
2018-12-02T10:33:54.773Z,99074.89
2018-12-02T10:34:58.595Z,99072.13
2018-12-02T10:36:02.634Z,99075.23
2018-12-02T10:37:06.735Z,99070.47
2018-12-02T10:38:10.526Z,99077.80
2018-12-02T10:39:14.352Z,99077.92
2018-12-02T10:40:21.772Z,99069.30
2018-12-02T10:41:25.470Z,99073.95
2018-12-02T10:42:29.481Z,99072.21
2018-12-02T10:43:33.226Z,99070.47
2018-12-02T10:44:36.853Z,99067.94
2018-12-02T10:45:40.598Z,99066.55
2018-12-02T10:46:44.551Z,99067.50
2018-12-02T10:47:48.543Z,99071.84
2018-12-02T10:48:52.159Z,99066.13
2018-12-02T10:49:55.674Z,99060.84
2018-12-02T10:50:59.045Z,99064.17
2018-12-02T10:52:02.511Z,99057.66
2018-12-02T10:53:10.255Z,99061.57
2018-12-02T10:54:13.865Z,99059.98
2018-12-02T10:55:35.322Z,99054.23
2018-12-02T10:56:38.697Z,99057.35
2018-12-02T10:57:42.273Z,99056.19
2018-12-02T10:58:45.691Z,99056.55
2018-12-02T10:59:49.567Z,99056.55
2018-12-02T11:00:59.424Z,99054.53
2018-12-02T11:02:08.091Z,99055.48
2018-12-02T11:03:11.599Z,99059.61
2018-12-02T11:04:15.072Z,99058.02
2018-12-02T11:05:18.514Z,99054.26
2018-12-02T11:06:21.960Z,99053.03
2018-12-02T11:07:25.388Z,99057.74
2018-12-02T11:08:28.902Z,99055.33
2018-12-02T11:09:32.354Z,99053.73
2018-12-02T11:10:35.787Z,99054.89
2018-12-02T11:11:39.212Z,99050.34
2018-12-02T11:12:42.626Z,99056.20
2018-12-02T11:13:46.076Z,99056.57
2018-12-02T11:14:49.521Z,99051.44
2018-12-02T11:15:53.021Z,99053.75
2018-12-02T11:16:56.652Z,99049.41
2018-12-02T11:18:00.610Z,99054.70
2018-12-02T11:19:04.145Z,99056.08
2018-12-02T11:20:10.679Z,99050.69
2018-12-02T11:21:14.093Z,99045.55
2018-12-02T11:22:17.525Z,99054.39
2018-12-02T11:23:20.920Z,99052.00
2018-12-02T11:24:24.328Z,99052.58
2018-12-02T11:25:27.798Z,99051.20
2018-12-02T11:26:31.243Z,99053.52
2018-12-02T11:27:34.809Z,99049.19
2018-12-02T11:28:38.355Z,99046.44
2018-12-02T11:29:42.848Z,99049.55
2018-12-02T11:30:45.201Z,99045.75
2018-12-02T11:31:48.638Z,99058.92
2018-12-02T11:32:52.149Z,99050.46
2018-12-02T11:33:55.607Z,99055.16
2018-12-02T11:34:59.063Z,99056.54
2018-12-02T11:36:02.465Z,99050.03
2018-12-02T11:37:06.719Z,99058.64
2018-12-02T11:38:10.268Z,99055.06
2018-12-02T11:39:13.847Z,99060.56
2018-12-02T11:40:22.184Z,99051.30
2018-12-02T11:41:25.868Z,99054.05
2018-12-02T11:42:29.306Z,99052.47
2018-12-02T11:43:32.725Z,99055.80
2018-12-02T11:44:36.197Z,99058.69
2018-12-02T11:45:39.803Z,99058.69
2018-12-02T11:46:43.357Z,99059.05
2018-12-02T11:47:48.101Z,99055.51
2018-12-02T11:48:51.669Z,99056.09
2018-12-02T11:49:55.082Z,99063.54
2018-12-02T11:50:58.524Z,99057.61
2018-12-02T11:52:02.095Z,99053.27
2018-12-02T11:53:06.445Z,99055.80
2018-12-02T11:54:09.882Z,99067.38
2018-12-02T11:55:14.620Z,99057.88
2018-12-02T11:56:18.046Z,99060.62
2018-12-02T11:57:26.439Z,99061.78
2018-12-02T11:58:24.955Z,99062.94
2018-12-02T11:59:28.372Z,99058.59
2018-12-02T12:00:33.157Z,99061.99
2018-12-02T12:01:36.567Z,99058.02
2018-12-02T12:02:40.283Z,99053.75
2018-12-02T12:03:43.765Z,99061.20
2018-12-02T12:04:47.239Z,99064.09
2018-12-02T12:05:51.198Z,99060.55
2018-12-02T12:06:55.696Z,99058.38
2018-12-02T12:07:59.146Z,99060.91
2018-12-02T12:09:02.607Z,99066.19
2018-12-02T12:10:09.238Z,99063.22
2018-12-02T12:11:12.794Z,99064.59
2018-12-02T12:12:16.327Z,99062.64
2018-12-02T12:13:19.798Z,99064.38
2018-12-02T12:14:23.309Z,99071.03
2018-12-02T12:15:27.846Z,99058.66
2018-12-02T12:16:31.285Z,99066.91
2018-12-02T12:17:34.700Z,99067.48
2018-12-02T12:18:38.111Z,99070.09
2018-12-02T12:19:42.087Z,99064.38
2018-12-02T12:20:45.101Z,99075.16
2018-12-02T12:21:48.726Z,99074.36
2018-12-02T12:22:52.196Z,99067.85
2018-12-02T12:23:55.587Z,99076.89
2018-12-02T12:24:59.019Z,99079.28
2018-12-02T12:26:02.444Z,99082.03
2018-12-02T12:27:05.830Z,99076.53
2018-12-02T12:28:09.574Z,99078.92
2018-12-02T12:29:13.001Z,99078.34
2018-12-02T12:30:19.487Z,99079.72
2018-12-02T12:31:22.918Z,99085.00
2018-12-02T12:32:26.331Z,99080.22
2018-12-02T12:33:29.737Z,99077.84
2018-12-02T12:34:33.161Z,99089.16
2018-12-02T12:35:37.827Z,99077.95